createdAt,value
2017-12-10T00:00:23.731Z,0
2017-12-10T00:01:23.723Z,0
2017-12-10T00:02:23.674Z,0
2017-12-10T00:03:23.679Z,0
2017-12-10T00:04:23.669Z,0
2017-12-10T00:05:23.632Z,0
2017-12-10T00:06:23.651Z,0
2017-12-10T00:07:23.612Z,0
2017-12-10T00:08:23.352Z,0
2017-12-10T00:09:23.336Z,0
2017-12-10T00:10:23.562Z,0
2017-12-10T00:11:23.560Z,0
2017-12-10T00:12:23.530Z,0
2017-12-10T00:13:23.530Z,0
2017-12-10T00:14:23.527Z,0
2017-12-10T00:15:23.479Z,0
2017-12-10T00:16:23.490Z,0
2017-12-10T00:17:23.497Z,0
2017-12-10T00:18:23.461Z,0
2017-12-10T00:19:23.182Z,0
2017-12-10T00:20:23.428Z,0
2017-12-10T00:21:23.424Z,0
2017-12-10T00:22:23.396Z,0
2017-12-10T00:23:23.386Z,0
2017-12-10T00:24:23.388Z,0
2017-12-10T00:25:23.357Z,0
2017-12-10T00:26:23.350Z,0
2017-12-10T00:27:23.080Z,0
2017-12-10T00:28:23.067Z,0
2017-12-10T00:29:23.298Z,0
2017-12-10T00:30:23.050Z,0
2017-12-10T00:31:23.275Z,0
2017-12-10T00:32:23.005Z,0
2017-12-10T00:33:23.265Z,0
2017-12-10T00:34:23.253Z,0
2017-12-10T00:35:23.297Z,0
2017-12-10T00:36:23.208Z,0
2017-12-10T00:37:23.182Z,0
2017-12-10T00:38:23.196Z,0
2017-12-10T00:39:23.158Z,0
2017-12-10T00:40:23.154Z,0
2017-12-10T00:41:23.136Z,0
2017-12-10T00:42:22.876Z,0
2017-12-10T00:43:23.100Z,0
2017-12-10T00:44:22.840Z,0
2017-12-10T00:45:23.080Z,0
2017-12-10T00:46:23.054Z,0
2017-12-10T00:47:23.109Z,0
2017-12-10T00:48:23.045Z,0
2017-12-10T00:49:23.024Z,0
2017-12-10T00:50:22.755Z,0
2017-12-10T00:51:23.005Z,0
2017-12-10T00:52:22.978Z,0
2017-12-10T00:53:22.961Z,0
2017-12-10T00:54:22.945Z,0
2017-12-10T00:55:22.935Z,0
2017-12-10T00:56:22.656Z,0
2017-12-10T00:57:22.922Z,0
2017-12-10T00:58:22.899Z,0
2017-12-10T00:59:22.889Z,0
2017-12-10T01:00:22.606Z,0
2017-12-10T01:01:22.873Z,0
2017-12-10T01:02:22.326Z,0
2017-12-10T01:03:22.630Z,0
2017-12-10T01:04:22.801Z,0
2017-12-10T01:05:22.787Z,0
2017-12-10T01:06:22.786Z,0
2017-12-10T01:07:22.762Z,0
2017-12-10T01:08:22.804Z,0
2017-12-10T01:09:22.746Z,0
2017-12-10T01:10:22.452Z,0
2017-12-10T01:11:22.715Z,0
2017-12-10T01:12:22.671Z,0
2017-12-10T01:13:22.676Z,0
2017-12-10T01:14:22.648Z,0
2017-12-10T01:15:22.650Z,0
2017-12-10T01:16:22.388Z,0
2017-12-10T01:17:22.638Z,0
2017-12-10T01:18:22.611Z,0
2017-12-10T01:19:22.602Z,0
2017-12-10T01:20:22.585Z,0
2017-12-10T01:21:22.619Z,0
2017-12-10T01:22:22.547Z,0
2017-12-10T01:23:22.278Z,0
2017-12-10T01:24:22.536Z,0
2017-12-10T01:25:22.492Z,0
2017-12-10T01:26:22.498Z,0
2017-12-10T01:27:22.475Z,0
2017-12-10T01:28:22.486Z,0
2017-12-10T01:29:22.455Z,0
2017-12-10T01:30:22.446Z,0
2017-12-10T01:31:22.438Z,0
2017-12-10T01:32:22.408Z,0
2017-12-10T01:33:22.386Z,0
2017-12-10T01:34:22.388Z,0
2017-12-10T01:35:22.418Z,0
2017-12-10T01:36:22.362Z,0
2017-12-10T01:37:22.355Z,0
2017-12-10T01:38:22.325Z,0
2017-12-10T01:39:22.310Z,0
2017-12-10T01:40:22.297Z,0
2017-12-10T01:41:22.279Z,0
2017-12-10T01:42:22.371Z,0
2017-12-10T01:43:21.763Z,0
2017-12-10T01:44:22.241Z,0
2017-12-10T01:45:22.203Z,0
2017-12-10T01:46:22.216Z,0
2017-12-10T01:47:22.193Z,0
2017-12-10T01:48:22.206Z,0
2017-12-10T01:49:22.158Z,0
2017-12-10T01:50:22.136Z,0
2017-12-10T01:51:22.128Z,0
2017-12-10T01:52:22.134Z,0
2017-12-10T01:53:22.101Z,0
2017-12-10T01:54:21.898Z,0
2017-12-10T01:55:22.073Z,0
2017-12-10T01:56:21.801Z,0
2017-12-10T01:57:21.819Z,0
2017-12-10T01:58:21.776Z,0
2017-12-10T01:59:22.009Z,0
2017-12-10T02:00:22.015Z,0
2017-12-10T02:01:21.997Z,0
2017-12-10T02:02:21.986Z,0
2017-12-10T02:03:21.968Z,0
2017-12-10T02:04:21.946Z,0
2017-12-10T02:05:21.993Z,0
2017-12-10T02:06:21.925Z,0
2017-12-10T02:07:21.663Z,0
2017-12-10T02:08:21.882Z,0
2017-12-10T02:09:21.882Z,0
2017-12-10T02:10:21.603Z,0
2017-12-10T02:11:21.840Z,0
2017-12-10T02:12:21.560Z,0
2017-12-10T02:13:21.815Z,0
2017-12-10T02:14:21.807Z,0
2017-12-10T02:15:21.796Z,0
2017-12-10T02:16:21.764Z,0
2017-12-10T02:17:21.764Z,0
2017-12-10T02:18:21.747Z,0
2017-12-10T02:19:21.734Z,0
2017-12-10T02:20:21.696Z,0
2017-12-10T02:21:21.705Z,0
2017-12-10T02:22:21.691Z,0
2017-12-10T02:23:21.669Z,0
2017-12-10T02:24:21.664Z,0
2017-12-10T02:25:21.655Z,0
2017-12-10T02:26:21.646Z,0
2017-12-10T02:27:21.611Z,0
2017-12-10T02:28:21.648Z,0
2017-12-10T02:29:21.576Z,0
2017-12-10T02:30:21.324Z,0
2017-12-10T02:31:21.548Z,0
2017-12-10T02:32:21.556Z,0
2017-12-10T02:33:21.547Z,0
2017-12-10T02:34:21.526Z,0
2017-12-10T02:35:21.557Z,0
2017-12-10T02:36:21.480Z,0
2017-12-10T02:37:21.213Z,0
2017-12-10T02:38:21.449Z,0
2017-12-10T02:39:21.494Z,0
2017-12-10T02:40:21.431Z,0
2017-12-10T02:41:21.430Z,0
2017-12-10T02:42:21.432Z,0
2017-12-10T02:43:21.120Z,0
2017-12-10T02:44:21.108Z,0
2017-12-10T02:45:21.351Z,0
2017-12-10T02:46:21.119Z,0
2017-12-10T02:47:21.328Z,0
2017-12-10T02:48:21.285Z,0
2017-12-10T02:49:21.294Z,0
2017-12-10T02:50:21.033Z,0
2017-12-10T02:51:21.254Z,0
2017-12-10T02:52:21.002Z,0
2017-12-10T02:53:21.220Z,0
2017-12-10T02:54:20.973Z,0
2017-12-10T02:55:21.200Z,0
2017-12-10T02:56:20.985Z,0
2017-12-10T02:57:21.249Z,0
2017-12-10T02:58:21.161Z,0
2017-12-10T02:59:21.153Z,0
2017-12-10T03:00:21.122Z,0
2017-12-10T03:01:21.107Z,0
2017-12-10T03:02:21.096Z,0
2017-12-10T03:03:21.096Z,0
2017-12-10T03:04:21.062Z,0
2017-12-10T03:05:21.047Z,0
2017-12-10T03:06:20.772Z,0
2017-12-10T03:07:21.041Z,0
2017-12-10T03:08:21.018Z,0
2017-12-10T03:09:20.997Z,0
2017-12-10T03:10:20.468Z,0
2017-12-10T03:11:20.966Z,0
2017-12-10T03:12:20.985Z,0
2017-12-10T03:13:20.692Z,0
2017-12-10T03:14:20.937Z,0
2017-12-10T03:15:20.915Z,0
2017-12-10T03:16:20.892Z,0
2017-12-10T03:17:20.871Z,0
2017-12-10T03:18:20.856Z,0
2017-12-10T03:19:20.831Z,0
2017-12-10T03:20:20.848Z,0
2017-12-10T03:21:20.825Z,0
2017-12-10T03:22:20.796Z,0
2017-12-10T03:23:20.794Z,0
2017-12-10T03:24:20.774Z,0
2017-12-10T03:25:20.523Z,0
2017-12-10T03:26:20.740Z,0
2017-12-10T03:27:20.721Z,0
2017-12-10T03:28:20.707Z,0
2017-12-10T03:29:20.730Z,0
2017-12-10T03:30:20.709Z,0
2017-12-10T03:31:20.412Z,0
2017-12-10T03:32:20.653Z,0
2017-12-10T03:33:20.660Z,0
2017-12-10T03:34:20.620Z,0
2017-12-10T03:35:20.426Z,0
2017-12-10T03:36:20.592Z,0
2017-12-10T03:37:20.597Z,0
2017-12-10T03:38:20.563Z,0
2017-12-10T03:39:20.538Z,0
2017-12-10T03:40:20.281Z,0
2017-12-10T03:41:20.248Z,0
2017-12-10T03:42:20.500Z,0
2017-12-10T03:43:20.224Z,0
2017-12-10T03:44:20.483Z,0
2017-12-10T03:45:20.450Z,0
2017-12-10T03:46:20.440Z,0
2017-12-10T03:47:20.425Z,0
2017-12-10T03:48:20.407Z,0
2017-12-10T03:49:20.400Z,0
2017-12-10T03:50:20.380Z,0
2017-12-10T03:51:20.363Z,0
2017-12-10T03:52:20.358Z,0
2017-12-10T03:53:20.093Z,0
2017-12-10T03:54:20.378Z,0
2017-12-10T03:55:20.308Z,0
2017-12-10T03:56:20.288Z,0
2017-12-10T03:57:20.286Z,0
2017-12-10T03:58:20.260Z,0
2017-12-10T03:59:20.235Z,0
2017-12-10T04:00:20.230Z,0
2017-12-10T04:01:19.963Z,0
2017-12-10T04:02:20.198Z,0
2017-12-10T04:03:20.184Z,0
2017-12-10T04:04:20.165Z,0
2017-12-10T04:05:20.170Z,0
2017-12-10T04:06:19.874Z,0
2017-12-10T04:07:20.124Z,0
2017-12-10T04:08:19.855Z,0
2017-12-10T04:09:20.098Z,0
2017-12-10T04:10:20.076Z,0
2017-12-10T04:11:20.053Z,0
2017-12-10T04:12:20.047Z,0
2017-12-10T04:13:20.063Z,0
2017-12-10T04:14:20.006Z,0
2017-12-10T04:15:19.754Z,0
2017-12-10T04:16:19.979Z,0
2017-12-10T04:17:19.965Z,0
2017-12-10T04:18:19.695Z,0
2017-12-10T04:19:19.938Z,0
2017-12-10T04:20:19.925Z,0
2017-12-10T04:21:19.908Z,0
2017-12-10T04:22:19.902Z,0
2017-12-10T04:23:19.903Z,0
2017-12-10T04:24:19.871Z,0
2017-12-10T04:25:19.621Z,0
2017-12-10T04:26:19.835Z,0
2017-12-10T04:27:19.835Z,0
2017-12-10T04:28:19.809Z,0
2017-12-10T04:29:19.782Z,0
2017-12-10T04:30:19.790Z,0
2017-12-10T04:31:19.767Z,0
2017-12-10T04:32:19.747Z,0
2017-12-10T04:33:19.728Z,0
2017-12-10T04:34:19.711Z,0
2017-12-10T04:35:19.706Z,0
2017-12-10T04:36:19.415Z,0
2017-12-10T04:37:19.662Z,0
2017-12-10T04:38:19.649Z,0
2017-12-10T04:39:19.631Z,0
2017-12-10T04:40:19.645Z,0
2017-12-10T04:41:19.600Z,0
2017-12-10T04:42:19.574Z,0
2017-12-10T04:43:19.577Z,0
2017-12-10T04:44:19.546Z,0
2017-12-10T04:45:19.039Z,0
2017-12-10T04:46:19.538Z,0
2017-12-10T04:47:19.502Z,0
2017-12-10T04:48:19.503Z,0
2017-12-10T04:49:19.224Z,0
2017-12-10T04:50:19.468Z,0
2017-12-10T04:51:19.457Z,0
2017-12-10T04:52:19.177Z,0
2017-12-10T04:53:19.408Z,0
2017-12-10T04:54:19.134Z,0
2017-12-10T04:55:19.380Z,0
2017-12-10T04:56:19.118Z,0
2017-12-10T04:57:19.357Z,0
2017-12-10T04:58:19.417Z,0
2017-12-10T04:59:19.329Z,0
2017-12-10T05:00:19.322Z,0
2017-12-10T05:01:19.288Z,0
2017-12-10T05:02:19.268Z,0
2017-12-10T05:03:19.259Z,0
2017-12-10T05:04:18.976Z,0
2017-12-10T05:05:19.231Z,0
2017-12-10T05:06:18.942Z,0
2017-12-10T05:07:19.195Z,0
2017-12-10T05:08:19.170Z,0
2017-12-10T05:09:19.168Z,0
2017-12-10T05:10:19.141Z,0
2017-12-10T05:11:19.177Z,0
2017-12-10T05:12:19.111Z,0
2017-12-10T05:13:19.126Z,0
2017-12-10T05:14:18.571Z,0
2017-12-10T05:15:19.082Z,0
2017-12-10T05:16:19.080Z,0
2017-12-10T05:17:19.032Z,0
2017-12-10T05:18:19.031Z,0
2017-12-10T05:19:18.995Z,0
2017-12-10T05:20:18.995Z,0
2017-12-10T05:21:18.968Z,0
2017-12-10T05:22:18.957Z,0
2017-12-10T05:23:18.683Z,0
2017-12-10T05:24:18.929Z,0
2017-12-10T05:25:18.668Z,0
2017-12-10T05:26:18.973Z,0
2017-12-10T05:27:18.947Z,0
2017-12-10T05:28:18.872Z,0
2017-12-10T05:29:18.855Z,0
2017-12-10T05:30:18.576Z,0
2017-12-10T05:31:18.823Z,0
2017-12-10T05:32:18.805Z,0
2017-12-10T05:33:18.793Z,0
2017-12-10T05:34:18.773Z,0
2017-12-10T05:35:18.745Z,0
2017-12-10T05:36:18.814Z,0
2017-12-10T05:37:18.762Z,0
2017-12-10T05:38:18.696Z,0
2017-12-10T05:39:18.434Z,0
2017-12-10T05:40:18.689Z,0
2017-12-10T05:41:18.668Z,0
2017-12-10T05:42:18.650Z,0
2017-12-10T05:43:18.640Z,0
2017-12-10T05:44:18.623Z,0
2017-12-10T05:45:18.602Z,0
2017-12-10T05:46:18.577Z,0
2017-12-10T05:47:18.567Z,0
2017-12-10T05:48:18.543Z,0
2017-12-10T05:49:18.534Z,0
2017-12-10T05:50:18.524Z,0
2017-12-10T05:51:18.507Z,0
2017-12-10T05:52:18.220Z,0
2017-12-10T05:53:18.222Z,0
2017-12-10T05:54:18.200Z,0
2017-12-10T05:55:18.757Z,0
2017-12-10T05:56:18.432Z,0
2017-12-10T05:57:18.412Z,0
2017-12-10T05:58:18.397Z,0
2017-12-10T05:59:18.374Z,0
2017-12-10T06:00:18.360Z,0
2017-12-10T06:01:18.339Z,0
2017-12-10T06:02:18.335Z,0
2017-12-10T06:03:18.057Z,0
2017-12-10T06:04:18.291Z,0
2017-12-10T06:05:18.270Z,0
2017-12-10T06:06:18.266Z,0
2017-12-10T06:07:18.249Z,0
2017-12-10T06:08:18.235Z,0
2017-12-10T06:09:17.962Z,0
2017-12-10T06:10:18.206Z,0
2017-12-10T06:11:17.936Z,0
2017-12-10T06:12:17.920Z,0
2017-12-10T06:13:18.169Z,0
2017-12-10T06:14:17.884Z,0
2017-12-10T06:15:17.874Z,0
2017-12-10T06:16:18.102Z,0
2017-12-10T06:17:17.852Z,0
2017-12-10T06:18:18.078Z,0
2017-12-10T06:19:17.792Z,0
2017-12-10T06:20:18.054Z,0
2017-12-10T06:21:18.035Z,0
2017-12-10T06:22:18.016Z,0
2017-12-10T06:23:17.993Z,0
2017-12-10T06:24:17.979Z,0
2017-12-10T06:25:17.970Z,0
2017-12-10T06:26:17.693Z,0
2017-12-10T06:27:17.947Z,0
2017-12-10T06:28:17.398Z,0
2017-12-10T06:29:17.664Z,0
2017-12-10T06:30:18.300Z,0
2017-12-10T06:31:17.884Z,0
2017-12-10T06:32:17.873Z,0
2017-12-10T06:33:17.844Z,0
2017-12-10T06:34:17.576Z,0
2017-12-10T06:35:17.882Z,0
2017-12-10T06:36:17.807Z,0
2017-12-10T06:37:17.831Z,0
2017-12-10T06:38:17.525Z,0
2017-12-10T06:39:17.741Z,0
2017-12-10T06:40:17.740Z,0
2017-12-10T06:41:17.703Z,0
2017-12-10T06:42:17.697Z,0
2017-12-10T06:43:17.750Z,0
2017-12-10T06:44:17.645Z,0
2017-12-10T06:45:17.637Z,0
2017-12-10T06:46:17.644Z,0
2017-12-10T06:47:17.623Z,0
2017-12-10T06:48:17.330Z,0
2017-12-10T06:49:17.585Z,0
2017-12-10T06:50:17.589Z,0
2017-12-10T06:51:17.631Z,0
2017-12-10T06:52:17.532Z,0
2017-12-10T06:53:17.521Z,0
2017-12-10T06:54:17.488Z,0
2017-12-10T06:55:17.221Z,0
2017-12-10T06:56:17.290Z,5
2017-12-10T06:57:17.461Z,5
2017-12-10T06:58:17.429Z,5
2017-12-10T06:59:17.412Z,5
2017-12-10T07:00:17.408Z,5
2017-12-10T07:01:17.387Z,5
2017-12-10T07:02:17.119Z,5
2017-12-10T07:03:17.358Z,5
2017-12-10T07:04:17.097Z,10
2017-12-10T07:05:17.340Z,10
2017-12-10T07:06:17.314Z,10
2017-12-10T07:07:17.042Z,10
2017-12-10T07:08:17.355Z,10
2017-12-10T07:09:17.277Z,10
2017-12-10T07:10:16.994Z,15
2017-12-10T07:11:16.989Z,15
2017-12-10T07:12:17.220Z,20
2017-12-10T07:13:17.197Z,20
2017-12-10T07:14:17.197Z,20
2017-12-10T07:15:17.156Z,20
2017-12-10T07:16:17.151Z,25
2017-12-10T07:17:17.125Z,25
2017-12-10T07:18:16.875Z,25
2017-12-10T07:19:17.116Z,30
2017-12-10T07:20:17.086Z,30
2017-12-10T07:21:16.825Z,35
2017-12-10T07:22:17.040Z,35
2017-12-10T07:23:17.045Z,35
2017-12-10T07:24:16.785Z,40
2017-12-10T07:25:16.760Z,40
2017-12-10T07:26:16.978Z,40
2017-12-10T07:27:16.983Z,40
2017-12-10T07:28:16.964Z,45
2017-12-10T07:29:16.960Z,45
2017-12-10T07:30:16.937Z,45
2017-12-10T07:31:16.918Z,45
2017-12-10T07:32:16.918Z,45
2017-12-10T07:33:16.646Z,50
2017-12-10T07:34:16.868Z,50
2017-12-10T07:35:16.608Z,50
2017-12-10T07:36:16.852Z,50
2017-12-10T07:37:16.834Z,55
2017-12-10T07:38:16.801Z,55
2017-12-10T07:39:16.798Z,55
2017-12-10T07:40:16.774Z,55
2017-12-10T07:41:16.503Z,55
2017-12-10T07:42:16.819Z,55
2017-12-10T07:43:16.721Z,60
2017-12-10T07:44:16.711Z,60
2017-12-10T07:45:15.941Z,60
2017-12-10T07:46:16.434Z,60
2017-12-10T07:47:16.671Z,60
2017-12-10T07:48:16.665Z,65
2017-12-10T07:49:16.641Z,65
2017-12-10T07:50:16.171Z,70
2017-12-10T07:51:16.606Z,70
2017-12-10T07:52:16.592Z,70
2017-12-10T07:53:16.328Z,75
2017-12-10T07:54:16.303Z,75
2017-12-10T07:55:16.292Z,80
2017-12-10T07:56:16.290Z,85
2017-12-10T07:57:16.243Z,90
2017-12-10T07:58:16.505Z,95
2017-12-10T07:59:16.225Z,95
2017-12-10T08:00:16.222Z,95
2017-12-10T08:01:16.201Z,95
2017-12-10T08:02:16.188Z,100
2017-12-10T08:03:16.426Z,100
2017-12-10T08:04:16.149Z,100
2017-12-10T08:05:16.390Z,100
2017-12-10T08:06:16.372Z,100
2017-12-10T08:07:16.109Z,100
2017-12-10T08:08:16.336Z,100
2017-12-10T08:09:16.309Z,100
2017-12-10T08:10:16.047Z,105
2017-12-10T08:11:16.033Z,105
2017-12-10T08:12:16.292Z,105
2017-12-10T08:13:16.270Z,105
2017-12-10T08:14:15.995Z,105
2017-12-10T08:15:15.984Z,105
2017-12-10T08:16:15.962Z,105
2017-12-10T08:17:15.957Z,105
2017-12-10T08:18:16.199Z,110
2017-12-10T08:19:16.164Z,115
2017-12-10T08:20:16.155Z,115
2017-12-10T08:21:15.879Z,115
2017-12-10T08:22:15.870Z,115
2017-12-10T08:23:15.917Z,110
2017-12-10T08:24:15.854Z,115
2017-12-10T08:25:16.089Z,120
2017-12-10T08:26:16.056Z,125
2017-12-10T08:27:16.082Z,125
2017-12-10T08:28:15.783Z,130
2017-12-10T08:29:16.016Z,135
2017-12-10T08:30:16.004Z,135
2017-12-10T08:31:15.987Z,135
2017-12-10T08:32:15.779Z,135
2017-12-10T08:33:15.966Z,135
2017-12-10T08:34:15.977Z,135
2017-12-10T08:35:15.674Z,135
2017-12-10T08:36:15.661Z,135
2017-12-10T08:37:15.908Z,135
2017-12-10T08:38:15.891Z,130
2017-12-10T08:39:15.894Z,130
2017-12-10T08:40:15.858Z,130
2017-12-10T08:41:15.579Z,130
2017-12-10T08:42:15.846Z,130
2017-12-10T08:43:15.823Z,135
2017-12-10T08:44:15.809Z,135
2017-12-10T08:45:15.765Z,130
2017-12-10T08:46:15.519Z,130
2017-12-10T08:47:15.775Z,130
2017-12-10T08:48:15.753Z,125
2017-12-10T08:49:15.715Z,125
2017-12-10T08:50:15.454Z,130
2017-12-10T08:51:15.432Z,130
2017-12-10T08:52:15.438Z,145
2017-12-10T08:53:15.683Z,145
2017-12-10T08:54:15.141Z,150
2017-12-10T08:55:15.638Z,150
2017-12-10T08:56:15.620Z,150
2017-12-10T08:57:15.362Z,150
2017-12-10T08:58:15.602Z,145
2017-12-10T08:59:15.586Z,145
2017-12-10T09:00:15.317Z,140
2017-12-10T09:01:15.602Z,140
2017-12-10T09:02:15.562Z,140
2017-12-10T09:03:15.549Z,135
2017-12-10T09:04:15.509Z,130
2017-12-10T09:05:15.518Z,125
2017-12-10T09:06:15.502Z,120
2017-12-10T09:07:15.475Z,125
2017-12-10T09:08:15.193Z,125
2017-12-10T09:09:15.496Z,125
2017-12-10T09:10:15.167Z,125
2017-12-10T09:11:15.409Z,125
2017-12-10T09:12:15.138Z,125
2017-12-10T09:13:15.162Z,125
2017-12-10T09:14:15.371Z,125
2017-12-10T09:15:15.094Z,125
2017-12-10T09:16:15.335Z,125
2017-12-10T09:17:15.417Z,125
2017-12-10T09:18:15.322Z,125
2017-12-10T09:19:15.325Z,125
2017-12-10T09:20:15.023Z,125
2017-12-10T09:21:15.269Z,125
2017-12-10T09:22:15.254Z,125
2017-12-10T09:23:15.236Z,125
2017-12-10T09:24:14.969Z,125
2017-12-10T09:25:15.206Z,125
2017-12-10T09:26:14.939Z,125
2017-12-10T09:27:15.214Z,125
2017-12-10T09:28:14.898Z,125
2017-12-10T09:29:15.128Z,125
2017-12-10T09:30:15.184Z,125
2017-12-10T09:31:15.224Z,125
2017-12-10T09:32:14.856Z,125
2017-12-10T09:33:14.825Z,125
2017-12-10T09:34:14.835Z,125
2017-12-10T09:35:15.069Z,125
2017-12-10T09:36:15.049Z,125
2017-12-10T09:37:15.045Z,125
2017-12-10T09:38:14.769Z,120
2017-12-10T09:39:14.741Z,120
2017-12-10T09:40:14.982Z,120
2017-12-10T09:41:15.013Z,120
2017-12-10T09:42:14.693Z,120
2017-12-10T09:43:14.956Z,120
2017-12-10T09:44:14.931Z,115
2017-12-10T09:45:14.664Z,120
2017-12-10T09:46:14.962Z,125
2017-12-10T09:47:14.883Z,130
2017-12-10T09:48:14.612Z,135
2017-12-10T09:49:14.852Z,135
2017-12-10T09:50:14.846Z,135
2017-12-10T09:51:14.830Z,135
2017-12-10T09:52:14.817Z,135
2017-12-10T09:53:14.805Z,140
2017-12-10T09:54:14.523Z,140
2017-12-10T09:55:14.761Z,140
2017-12-10T09:56:14.771Z,140
2017-12-10T09:57:14.745Z,140
2017-12-10T09:58:14.712Z,140
2017-12-10T09:59:14.704Z,140
2017-12-10T10:00:14.712Z,140
2017-12-10T10:01:14.706Z,135
2017-12-10T10:02:14.396Z,135
2017-12-10T10:03:14.652Z,135
2017-12-10T10:04:14.637Z,135
2017-12-10T10:05:14.611Z,135
2017-12-10T10:06:14.602Z,130
2017-12-10T10:07:14.608Z,130
2017-12-10T10:08:14.613Z,130
2017-12-10T10:09:14.580Z,130
2017-12-10T10:10:14.549Z,140
2017-12-10T10:11:14.512Z,140
2017-12-10T10:12:14.580Z,135
2017-12-10T10:13:14.494Z,145
2017-12-10T10:14:14.499Z,150
2017-12-10T10:15:14.479Z,150
2017-12-10T10:16:14.468Z,150
2017-12-10T10:17:14.433Z,150
2017-12-10T10:18:14.182Z,145
2017-12-10T10:19:14.390Z,140
2017-12-10T10:20:14.405Z,135
2017-12-10T10:21:14.375Z,140
2017-12-10T10:22:13.856Z,140
2017-12-10T10:23:14.380Z,145
2017-12-10T10:24:14.070Z,145
2017-12-10T10:25:13.809Z,145
2017-12-10T10:26:14.335Z,150
2017-12-10T10:27:14.023Z,180
2017-12-10T10:28:14.025Z,200
2017-12-10T10:29:14.001Z,215
2017-12-10T10:30:13.998Z,205
2017-12-10T10:31:14.254Z,205
2017-12-10T10:32:13.706Z,220
2017-12-10T10:33:14.187Z,225
2017-12-10T10:34:13.948Z,210
2017-12-10T10:35:13.924Z,185
2017-12-10T10:36:13.921Z,170
2017-12-10T10:37:13.877Z,170
2017-12-10T10:38:14.131Z,175
2017-12-10T10:39:14.117Z,175
2017-12-10T10:40:14.363Z,180
2017-12-10T10:41:14.165Z,180
2017-12-10T10:42:14.110Z,190
2017-12-10T10:43:14.082Z,195
2017-12-10T10:44:14.073Z,200
2017-12-10T10:45:13.770Z,195
2017-12-10T10:46:13.827Z,195
2017-12-10T10:47:14.017Z,190
2017-12-10T10:48:13.734Z,185
2017-12-10T10:49:13.719Z,180
2017-12-10T10:50:13.701Z,170
2017-12-10T10:51:13.928Z,170
2017-12-10T10:52:13.672Z,165
2017-12-10T10:53:13.903Z,165
2017-12-10T10:54:13.897Z,160
2017-12-10T10:55:13.883Z,160
2017-12-10T10:56:13.875Z,160
2017-12-10T10:57:13.846Z,160
2017-12-10T10:58:13.841Z,165
2017-12-10T10:59:13.575Z,170
2017-12-10T11:00:13.809Z,175
2017-12-10T11:01:13.556Z,175
2017-12-10T11:02:13.529Z,170
2017-12-10T11:03:13.516Z,170
2017-12-10T11:04:13.740Z,165
2017-12-10T11:05:13.475Z,165
2017-12-10T11:06:13.774Z,160
2017-12-10T11:07:13.726Z,160
2017-12-10T11:08:13.693Z,160
2017-12-10T11:09:13.689Z,155
2017-12-10T11:10:13.493Z,150
2017-12-10T11:11:13.648Z,150
2017-12-10T11:12:13.391Z,150
2017-12-10T11:13:13.640Z,145
2017-12-10T11:14:13.612Z,145
2017-12-10T11:15:13.680Z,140
2017-12-10T11:16:13.601Z,140
2017-12-10T11:17:13.609Z,140
2017-12-10T11:18:13.293Z,140
2017-12-10T11:19:13.289Z,140
2017-12-10T11:20:13.526Z,130
2017-12-10T11:21:13.516Z,130
2017-12-10T11:22:13.000Z,140
2017-12-10T11:23:13.538Z,135
2017-12-10T11:24:13.536Z,140
2017-12-10T11:25:12.937Z,145
2017-12-10T11:26:12.942Z,150
2017-12-10T11:27:13.424Z,155
2017-12-10T11:28:13.457Z,160
2017-12-10T11:29:13.161Z,165
2017-12-10T11:30:12.895Z,170
2017-12-10T11:31:13.110Z,160
2017-12-10T11:32:13.400Z,150
2017-12-10T11:33:12.804Z,145
2017-12-10T11:34:13.339Z,145
2017-12-10T11:35:13.056Z,160
2017-12-10T11:36:13.047Z,160
2017-12-10T11:37:13.272Z,155
2017-12-10T11:38:13.321Z,155
2017-12-10T11:39:13.263Z,150
2017-12-10T11:40:12.999Z,140
2017-12-10T11:41:13.219Z,135
2017-12-10T11:42:13.206Z,130
2017-12-10T11:43:13.231Z,130
2017-12-10T11:44:12.979Z,130
2017-12-10T11:45:13.254Z,130
2017-12-10T11:46:13.166Z,130
2017-12-10T11:47:13.136Z,125
2017-12-10T11:48:13.134Z,120
2017-12-10T11:49:13.126Z,110
2017-12-10T11:50:12.859Z,105
2017-12-10T11:51:13.104Z,105
2017-12-10T11:52:12.804Z,105
2017-12-10T11:53:13.039Z,105
2017-12-10T11:54:13.075Z,105
2017-12-10T11:55:13.032Z,105
2017-12-10T11:56:13.050Z,115
2017-12-10T11:57:12.994Z,125
2017-12-10T11:58:13.096Z,140
2017-12-10T11:59:12.716Z,155
2017-12-10T12:00:12.690Z,160
2017-12-10T12:01:12.435Z,165
2017-12-10T12:02:12.918Z,175
2017-12-10T12:03:12.912Z,175
2017-12-10T12:04:12.641Z,180
2017-12-10T12:05:12.611Z,180
2017-12-10T12:06:12.855Z,175
2017-12-10T12:07:12.849Z,170
2017-12-10T12:08:12.594Z,165
2017-12-10T12:09:12.827Z,160
2017-12-10T12:10:12.809Z,160
2017-12-10T12:11:12.774Z,170
2017-12-10T12:12:12.788Z,170
2017-12-10T12:13:12.524Z,170
2017-12-10T12:14:12.786Z,170
2017-12-10T12:15:12.730Z,170
2017-12-10T12:16:12.731Z,170
2017-12-10T12:17:12.722Z,170
2017-12-10T12:18:12.695Z,175
2017-12-10T12:19:12.671Z,175
2017-12-10T12:20:12.434Z,180
2017-12-10T12:21:12.642Z,185
2017-12-10T12:22:12.640Z,190
2017-12-10T12:23:12.353Z,195
2017-12-10T12:24:12.641Z,195
2017-12-10T12:25:12.350Z,195
2017-12-10T12:26:12.597Z,190
2017-12-10T12:27:12.587Z,185
2017-12-10T12:28:12.297Z,180
2017-12-10T12:29:12.556Z,165
2017-12-10T12:30:12.540Z,155
2017-12-10T12:31:12.487Z,150
2017-12-10T12:32:12.238Z,145
2017-12-10T12:33:12.225Z,140
2017-12-10T12:34:12.479Z,135
2017-12-10T12:35:12.215Z,135
2017-12-10T12:36:12.179Z,135
2017-12-10T12:37:12.404Z,135
2017-12-10T12:38:12.386Z,130
2017-12-10T12:39:12.140Z,130
2017-12-10T12:40:12.121Z,135
2017-12-10T12:41:12.359Z,135
2017-12-10T12:42:12.082Z,135
2017-12-10T12:43:12.412Z,135
2017-12-10T12:44:12.389Z,130
2017-12-10T12:45:12.300Z,130
2017-12-10T12:46:12.030Z,130
2017-12-10T12:47:11.514Z,125
2017-12-10T12:48:12.258Z,125
2017-12-10T12:49:12.261Z,120
2017-12-10T12:50:12.265Z,120
2017-12-10T12:51:11.962Z,115
2017-12-10T12:52:11.988Z,115
2017-12-10T12:53:12.197Z,110
2017-12-10T12:54:11.928Z,110
2017-12-10T12:55:12.166Z,110
2017-12-10T12:56:12.129Z,110
2017-12-10T12:57:12.132Z,115
2017-12-10T12:58:12.109Z,115
2017-12-10T12:59:12.108Z,115
2017-12-10T13:00:11.833Z,115
2017-12-10T13:01:11.829Z,120
2017-12-10T13:02:11.826Z,120
2017-12-10T13:03:12.085Z,120
2017-12-10T13:04:12.025Z,120
2017-12-10T13:05:12.087Z,120
2017-12-10T13:06:11.499Z,120
2017-12-10T13:07:12.052Z,115
2017-12-10T13:08:11.961Z,115
2017-12-10T13:09:11.965Z,115
2017-12-10T13:10:11.683Z,110
2017-12-10T13:11:11.690Z,110
2017-12-10T13:12:11.946Z,105
2017-12-10T13:13:11.886Z,105
2017-12-10T13:14:11.891Z,100
2017-12-10T13:15:11.623Z,100
2017-12-10T13:16:11.609Z,100
2017-12-10T13:17:11.848Z,100
2017-12-10T13:18:11.815Z,95
2017-12-10T13:19:11.542Z,95
2017-12-10T13:20:11.799Z,95
2017-12-10T13:21:11.527Z,95
2017-12-10T13:22:11.557Z,95
2017-12-10T13:23:11.807Z,90
2017-12-10T13:24:11.757Z,90
2017-12-10T13:25:11.739Z,90
2017-12-10T13:26:11.450Z,85
2017-12-10T13:27:11.687Z,85
2017-12-10T13:28:11.749Z,80
2017-12-10T13:29:11.683Z,80
2017-12-10T13:30:11.639Z,75
2017-12-10T13:31:11.662Z,75
2017-12-10T13:32:11.633Z,75
2017-12-10T13:33:11.363Z,70
2017-12-10T13:34:11.331Z,70
2017-12-10T13:35:11.326Z,70
2017-12-10T13:36:11.323Z,65
2017-12-10T13:37:11.561Z,60
2017-12-10T13:38:11.555Z,60
2017-12-10T13:39:11.266Z,60
2017-12-10T13:40:11.502Z,60
2017-12-10T13:41:11.500Z,60
2017-12-10T13:42:11.486Z,60
2017-12-10T13:43:11.466Z,60
2017-12-10T13:44:11.204Z,60
2017-12-10T13:45:11.430Z,60
2017-12-10T13:46:11.427Z,55
2017-12-10T13:47:11.417Z,55
2017-12-10T13:48:11.389Z,55
2017-12-10T13:49:11.381Z,50
2017-12-10T13:50:11.357Z,45
2017-12-10T13:51:11.343Z,45
2017-12-10T13:52:11.075Z,45
2017-12-10T13:53:11.324Z,45
2017-12-10T13:54:11.333Z,45
2017-12-10T13:55:11.283Z,45
2017-12-10T13:56:11.273Z,45
2017-12-10T13:57:11.238Z,45
2017-12-10T13:58:11.273Z,45
2017-12-10T13:59:11.217Z,45
2017-12-10T14:00:11.211Z,40
2017-12-10T14:01:11.194Z,40
2017-12-10T14:02:11.213Z,40
2017-12-10T14:03:10.904Z,35
2017-12-10T14:04:11.148Z,35
2017-12-10T14:05:10.880Z,35
2017-12-10T14:06:11.119Z,30
2017-12-10T14:07:11.130Z,30
2017-12-10T14:08:11.077Z,30
2017-12-10T14:09:11.119Z,30
2017-12-10T14:10:10.575Z,30
2017-12-10T14:11:11.031Z,30
2017-12-10T14:12:10.784Z,30
2017-12-10T14:13:11.006Z,25
2017-12-10T14:14:10.747Z,25
2017-12-10T14:15:10.976Z,25
2017-12-10T14:16:10.974Z,25
2017-12-10T14:17:10.956Z,25
2017-12-10T14:18:10.664Z,25
2017-12-10T14:19:10.934Z,20